sensor_id;sensor_type;location;lat;lon;timestamp;temperature;humidity
52943;DHT22;38809;53.300;6.614;2023-09-30T17:50:33;16.40;99.90
52943;DHT22;38809;53.300;6.614;2023-09-30T17:52:59;16.30;99.90
52943;DHT22;38809;53.300;6.614;2023-09-30T17:55:25;16.40;99.90
52943;DHT22;38809;53.300;6.614;2023-09-30T17:57:50;16.40;99.90
52943;DHT22;38809;53.300;6.614;2023-09-30T18:00:16;16.40;99.90
52943;DHT22;38809;53.300;6.614;2023-09-30T18:02:42;16.40;99.90
52943;DHT22;38809;53.300;6.614;2023-09-30T18:05:08;16.40;99.90
52943;DHT22;38809;53.300;6.614;2023-09-30T18:07:34;16.30;99.90
52943;DHT22;38809;53.300;6.614;2023-09-30T18:10:00;16.10;99.90
52943;DHT22;38809;53.300;6.614;2023-09-30T18:12:26;16.00;99.90
52943;DHT22;38809;53.300;6.614;2023-09-30T18:14:51;15.90;99.90
52943;DHT22;38809;53.300;6.614;2023-09-30T18:17:17;15.70;99.90
52943;DHT22;38809;53.300;6.614;2023-09-30T18:19:43;15.70;99.90
52943;DHT22;38809;53.300;6.614;2023-09-30T18:22:08;15.70;99.90
52943;DHT22;38809;53.300;6.614;2023-09-30T18:24:34;15.80;99.90
52943;DHT22;38809;53.300;6.614;2023-09-30T18:27:00;15.80;99.90
52943;DHT22;38809;53.300;6.614;2023-09-30T18:29:25;15.80;99.90
52943;DHT22;38809;53.300;6.614;2023-09-30T18:31:51;15.90;99.90
52943;DHT22;38809;53.300;6.614;2023-09-30T18:34:16;15.80;99.90
52943;DHT22;38809;53.300;6.614;2023-09-30T18:36:42;15.80;99.90
52943;DHT22;38809;53.300;6.614;2023-09-30T18:39:07;15.80;99.90
52943;DHT22;38809;53.300;6.614;2023-09-30T18:41:33;15.80;99.90
52943;DHT22;38809;53.300;6.614;2023-09-30T18:43:59;15.80;99.90
52943;DHT22;38809;53.300;6.614;2023-09-30T18:46:24;15.80;99.90
52943;DHT22;38809;53.300;6.614;2023-09-30T18:48:50;15.80;99.90
52943;DHT22;38809;53.300;6.614;2023-09-30T18:51:19;15.80;99.90
52943;DHT22;38809;53.300;6.614;2023-09-30T18:53:45;15.80;99.90
52943;DHT22;38809;53.300;6.614;2023-09-30T18:56:12;15.80;99.90
52943;DHT22;38809;53.300;6.614;2023-09-30T18:58:43;15.80;99.90
52943;DHT22;38809;53.300;6.614;2023-09-30T19:01:09;15.80;99.90
52943;DHT22;38809;53.300;6.614;2023-09-30T19:03:34;15.80;99.90
52943;DHT22;38809;53.300;6.614;2023-09-30T19:06:00;15.90;99.90
52943;DHT22;38809;53.300;6.614;2023-09-30T19:08:26;15.90;99.90
52943;DHT22;38809;53.300;6.614;2023-09-30T19:10:52;15.80;99.90
52943;DHT22;38809;53.300;6.614;2023-09-30T19:13:18;15.70;99.90
52943;DHT22;38809;53.300;6.614;2023-09-30T19:15:43;15.60;99.90
52943;DHT22;38809;53.300;6.614;2023-09-30T19:18:09;15.50;99.90
52943;DHT22;38809;53.300;6.614;2023-09-30T19:20:35;15.50;99.90
52943;DHT22;38809;53.300;6.614;2023-09-30T19:23:00;15.60;99.90
52943;DHT22;38809;53.300;6.614;2023-09-30T19:25:26;15.60;99.90
52943;DHT22;38809;53.300;6.614;2023-09-30T19:27:51;15.60;99.90
52943;DHT22;38809;53.300;6.614;2023-09-30T19:30:17;15.60;99.90
52943;DHT22;38809;53.300;6.614;2023-09-30T19:32:42;15.50;99.90
52943;DHT22;38809;53.300;6.614;2023-09-30T19:35:08;15.50;99.90
52943;DHT22;38809;53.300;6.614;2023-09-30T19:37:34;15.50;99.90
52943;DHT22;38809;53.300;6.614;2023-09-30T19:40:00;15.40;99.90
52943;DHT22;38809;53.300;6.614;2023-09-30T19:42:25;15.40;99.90
52943;DHT22;38809;53.300;6.614;2023-09-30T19:44:54;15.30;99.90
52943;DHT22;38809;53.300;6.614;2023-09-30T19:47:20;15.30;99.90
52943;DHT22;38809;53.300;6.614;2023-09-30T19:49:46;15.20;99.90
52943;DHT22;38809;53.300;6.614;2023-09-30T19:52:12;15.10;99.90
52943;DHT22;38809;53.300;6.614;2023-09-30T19:54:38;15.00;99.90
52943;DHT22;38809;53.300;6.614;2023-09-30T20:04:16;15.40;99.90
52943;DHT22;38809;53.300;6.614;2023-09-30T20:06:41;15.30;99.90
52943;DHT22;38809;53.300;6.614;2023-09-30T20:09:08;15.40;99.90
52943;DHT22;38809;53.300;6.614;2023-09-30T20:11:34;15.90;99.90
52943;DHT22;38809;53.300;6.614;2023-09-30T20:14:00;15.70;99.90
52943;DHT22;38809;53.300;6.614;2023-09-30T20:16:26;15.70;99.90
52943;DHT22;38809;53.300;6.614;2023-09-30T20:18:52;15.80;99.90
52943;DHT22;38809;53.300;6.614;2023-09-30T20:21:17;15.60;99.90
52943;DHT22;38809;53.300;6.614;2023-09-30T20:23:43;15.60;99.90
52943;DHT22;38809;53.300;6.614;2023-09-30T20:26:10;15.60;99.90
52943;DHT22;38809;53.300;6.614;2023-09-30T20:28:44;15.60;99.90
52943;DHT22;38809;53.300;6.614;2023-09-30T20:31:15;15.60;99.90
52943;DHT22;38809;53.300;6.614;2023-09-30T20:33:40;15.60;99.90
52943;DHT22;38809;53.300;6.614;2023-09-30T20:36:08;15.60;99.90
52943;DHT22;38809;53.300;6.614;2023-09-30T20:38:33;15.60;99.90
52943;DHT22;38809;53.300;6.614;2023-09-30T20:41:05;15.70;99.90
52943;DHT22;38809;53.300;6.614;2023-09-30T20:43:31;15.70;99.90
52943;DHT22;38809;53.300;6.614;2023-09-30T20:46:00;15.60;99.90
52943;DHT22;38809;53.300;6.614;2023-09-30T20:48:26;15.70;99.90
52943;DHT22;38809;53.300;6.614;2023-09-30T20:50:51;15.70;99.90
52943;DHT22;38809;53.300;6.614;2023-09-30T20:53:17;15.70;99.90
52943;DHT22;38809;53.300;6.614;2023-09-30T20:55:42;15.70;99.90
52943;DHT22;38809;53.300;6.614;2023-09-30T20:58:08;15.70;99.90
52943;DHT22;38809;53.300;6.614;2023-09-30T21:00:34;15.60;99.90
52943;DHT22;38809;53.300;6.614;2023-09-30T21:03:00;15.60;99.90
52943;DHT22;38809;53.300;6.614;2023-09-30T21:05:26;15.60;99.90
52943;DHT22;38809;53.300;6.614;2023-09-30T21:07:51;15.60;99.90
52943;DHT22;38809;53.300;6.614;2023-09-30T21:10:17;15.60;99.90
52943;DHT22;38809;53.300;6.614;2023-09-30T21:12:43;15.60;99.90
52943;DHT22;38809;53.300;6.614;2023-09-30T21:15:08;15.60;99.90
52943;DHT22;38809;53.300;6.614;2023-09-30T21:17:34;15.60;99.90
52943;DHT22;38809;53.300;6.614;2023-09-30T21:19:59;15.60;99.90
52943;DHT22;38809;53.300;6.614;2023-09-30T21:22:25;15.60;99.90
52943;DHT22;38809;53.300;6.614;2023-09-30T21:24:51;15.60;99.90
52943;DHT22;38809;53.300;6.614;2023-09-30T21:27:16;15.60;99.90
52943;DHT22;38809;53.300;6.614;2023-09-30T21:29:42;15.60;99.90
52943;DHT22;38809;53.300;6.614;2023-09-30T21:32:07;15.60;99.90
52943;DHT22;38809;53.300;6.614;2023-09-30T21:34:33;15.60;99.90
52943;DHT22;38809;53.300;6.614;2023-09-30T21:36:59;15.60;99.90
52943;DHT22;38809;53.300;6.614;2023-09-30T21:39:25;15.60;99.90
52943;DHT22;38809;53.300;6.614;2023-09-30T21:41:50;15.60;99.90
52943;DHT22;38809;53.300;6.614;2023-09-30T21:44:16;15.50;99.90
52943;DHT22;38809;53.300;6.614;2023-09-30T21:46:42;15.60;99.90
52943;DHT22;38809;53.300;6.614;2023-09-30T21:49:07;15.50;99.90
52943;DHT22;38809;53.300;6.614;2023-09-30T21:51:33;15.60;99.90
52943;DHT22;38809;53.300;6.614;2023-09-30T21:53:59;15.60;99.90
52943;DHT22;38809;53.300;6.614;2023-09-30T21:56:25;15.50;99.90
52943;DHT22;38809;53.300;6.614;2023-09-30T21:58:51;15.50;99.90
52943;DHT22;38809;53.300;6.614;2023-09-30T22:01:16;15.50;99.90
52943;DHT22;38809;53.300;6.614;2023-09-30T22:03:43;15.50;99.90
52943;DHT22;38809;53.300;6.614;2023-09-30T22:06:09;15.50;99.90
52943;DHT22;38809;53.300;6.614;2023-09-30T22:08:34;15.50;99.90
52943;DHT22;38809;53.300;6.614;2023-09-30T22:11:02;15.50;99.90
52943;DHT22;38809;53.300;6.614;2023-09-30T22:13:27;15.40;99.90
52943;DHT22;38809;53.300;6.614;2023-09-30T22:15:53;15.50;99.90
52943;DHT22;38809;53.300;6.614;2023-09-30T22:18:19;15.50;99.90
52943;DHT22;38809;53.300;6.614;2023-09-30T22:20:46;15.40;99.90
52943;DHT22;38809;53.300;6.614;2023-09-30T22:23:12;15.50;99.90
52943;DHT22;38809;53.300;6.614;2023-09-30T22:25:37;15.40;99.90
52943;DHT22;38809;53.300;6.614;2023-09-30T22:28:07;15.40;99.90
52943;DHT22;38809;53.300;6.614;2023-09-30T22:30:33;15.40;99.90
52943;DHT22;38809;53.300;6.614;2023-09-30T22:32:59;15.40;99.90
52943;DHT22;38809;53.300;6.614;2023-09-30T22:35:28;15.40;99.90
52943;DHT22;38809;53.300;6.614;2023-09-30T22:37:55;15.40;99.90
52943;DHT22;38809;53.300;6.614;2023-09-30T22:40:21;15.40;99.90
52943;DHT22;38809;53.300;6.614;2023-09-30T22:42:46;15.40;99.90
52943;DHT22;38809;53.300;6.614;2023-09-30T22:45:12;15.40;99.90
52943;DHT22;38809;53.300;6.614;2023-09-30T22:47:41;15.40;99.90
52943;DHT22;38809;53.300;6.614;2023-09-30T22:50:08;15.30;99.90
52943;DHT22;38809;53.300;6.614;2023-09-30T22:52:35;15.30;99.90
52943;DHT22;38809;53.300;6.614;2023-09-30T22:55:00;15.30;99.90
52943;DHT22;38809;53.300;6.614;2023-09-30T22:57:26;15.30;99.90
52943;DHT22;38809;53.300;6.614;2023-09-30T22:59:52;15.30;99.90
52943;DHT22;38809;53.300;6.614;2023-09-30T23:02:17;15.30;99.90
52943;DHT22;38809;53.300;6.614;2023-09-30T23:04:43;15.30;99.90
52943;DHT22;38809;53.300;6.614;2023-09-30T23:07:08;15.30;99.90
52943;DHT22;38809;53.300;6.614;2023-09-30T23:09:35;15.30;99.90
52943;DHT22;38809;53.300;6.614;2023-09-30T23:12:01;15.30;99.90
52943;DHT22;38809;53.300;6.614;2023-09-30T23:14:27;15.30;99.90
52943;DHT22;38809;53.300;6.614;2023-09-30T23:16:53;15.30;99.90
52943;DHT22;38809;53.300;6.614;2023-09-30T23:19:20;15.20;99.90
52943;DHT22;38809;53.300;6.614;2023-09-30T23:21:46;15.20;99.90
52943;DHT22;38809;53.300;6.614;2023-09-30T23:24:13;15.20;99.90
52943;DHT22;38809;53.300;6.614;2023-09-30T23:26:40;15.20;99.90
52943;DHT22;38809;53.300;6.614;2023-09-30T23:29:06;15.20;99.90
52943;DHT22;38809;53.300;6.614;2023-09-30T23:31:33;15.20;99.90
52943;DHT22;38809;53.300;6.614;2023-09-30T23:33:59;15.20;99.90
52943;DHT22;38809;53.300;6.614;2023-09-30T23:36:28;15.20;99.90
52943;DHT22;38809;53.300;6.614;2023-09-30T23:38:54;15.20;99.90
52943;DHT22;38809;53.300;6.614;2023-09-30T23:41:20;15.10;99.90
52943;DHT22;38809;53.300;6.614;2023-09-30T23:43:45;15.10;99.90
52943;DHT22;38809;53.300;6.614;2023-09-30T23:46:11;15.20;99.90
52943;DHT22;38809;53.300;6.614;2023-09-30T23:48:37;15.10;99.90
52943;DHT22;38809;53.300;6.614;2023-09-30T23:51:02;15.20;99.90
52943;DHT22;38809;53.300;6.614;2023-09-30T23:53:29;15.20;99.90
52943;DHT22;38809;53.300;6.614;2023-09-30T23:55:57;15.20;99.90
52943;DHT22;38809;53.300;6.614;2023-09-30T23:58:23;14.70;99.90
